createdAt,value
2019-02-04T00:00:57.784Z,99.90
2019-02-04T00:03:29.111Z,99.90
2019-02-04T00:05:59.468Z,99.90
2019-02-04T00:08:31.831Z,99.90
2019-02-04T00:11:02.584Z,99.90
2019-02-04T00:13:33.204Z,99.90
2019-02-04T00:16:04.051Z,99.90
2019-02-04T00:18:35.524Z,99.90
2019-02-04T00:21:18.112Z,99.90
2019-02-04T00:23:48.933Z,99.90
2019-02-04T00:26:20.145Z,99.90
2019-02-04T00:28:51.825Z,99.90
2019-02-04T00:31:22.842Z,99.90
2019-02-04T00:33:53.616Z,99.90
2019-02-04T00:36:38.618Z,99.90
2019-02-04T00:39:11.360Z,99.90
2019-02-04T00:42:06.483Z,99.90
2019-02-04T00:44:37.842Z,99.90
2019-02-04T00:47:08.246Z,99.90
2019-02-04T00:49:39.639Z,99.90
2019-02-04T00:52:10.247Z,99.90
2019-02-04T00:54:41.654Z,99.90
2019-02-04T00:57:12.407Z,99.90
2019-02-04T00:59:43.736Z,99.90
2019-02-04T01:02:14.543Z,99.90
2019-02-04T01:04:45.382Z,99.90
2019-02-04T01:07:16.396Z,99.90
2019-02-04T01:09:47.422Z,99.90
2019-02-04T01:12:17.813Z,99.90
2019-02-04T01:14:49.320Z,99.90
2019-02-04T01:17:19.647Z,99.90
2019-02-04T01:19:51.092Z,99.90
2019-02-04T01:22:22.090Z,99.90
2019-02-04T01:24:53.028Z,99.90
2019-02-04T01:27:24.190Z,99.90
2019-02-04T01:29:54.912Z,99.90
2019-02-04T01:32:25.870Z,99.90
2019-02-04T01:34:56.666Z,99.90
2019-02-04T01:37:27.707Z,99.90
2019-02-04T01:39:59.392Z,99.90
2019-02-04T01:42:30.733Z,99.90
2019-02-04T01:45:02.010Z,99.90
2019-02-04T01:47:32.622Z,99.90
2019-02-04T01:50:03.769Z,99.90
2019-02-04T01:52:35.133Z,99.90
2019-02-04T01:55:07.544Z,99.90
2019-02-04T01:57:38.240Z,99.90
2019-02-04T02:00:20.749Z,99.90
2019-02-04T03:02:05.747Z,99.90
2019-02-04T03:04:36.834Z,99.90
2019-02-04T03:07:07.792Z,99.90
2019-02-04T03:09:38.561Z,99.90
2019-02-04T03:12:10.399Z,99.90
2019-02-04T03:14:42.030Z,99.90
2019-02-04T03:17:13.053Z,99.90
2019-02-04T03:19:48.932Z,99.90
2019-02-04T03:22:21.118Z,99.90
2019-02-04T03:24:52.128Z,99.90
2019-02-04T03:27:23.229Z,99.90
2019-02-04T03:29:54.595Z,99.90
2019-02-04T03:32:25.222Z,99.90
2019-02-04T03:34:56.964Z,99.90
2019-02-04T03:37:27.272Z,99.90
2019-02-04T03:39:59.478Z,99.90
2019-02-04T03:42:30.488Z,99.90
2019-02-04T03:45:01.189Z,99.90
2019-02-04T03:47:32.500Z,99.90
2019-02-04T03:50:03.573Z,99.90
2019-02-04T03:52:34.614Z,99.90
2019-02-04T03:55:05.597Z,99.90
2019-02-04T03:57:36.590Z,99.90
2019-02-04T04:00:14.015Z,99.90
2019-02-04T04:02:45.436Z,99.90
2019-02-04T04:05:16.452Z,99.90
2019-02-04T04:07:47.391Z,99.90
2019-02-04T04:10:18.671Z,99.90
2019-02-04T04:12:49.796Z,99.90
2019-02-04T04:15:20.714Z,99.90
2019-02-04T04:17:51.558Z,99.90
2019-02-04T04:20:23.268Z,99.90
2019-02-04T04:22:54.817Z,99.90
2019-02-04T04:25:25.947Z,99.90
2019-02-04T04:27:57.238Z,99.90
2019-02-04T04:30:28.607Z,99.90
2019-02-04T04:32:59.892Z,99.90
2019-02-04T04:35:31.171Z,99.90
2019-02-04T04:38:02.131Z,99.90
2019-02-04T04:40:33.524Z,99.90
2019-02-04T04:43:04.958Z,99.90
2019-02-04T04:45:37.412Z,99.90
2019-02-04T04:48:09.070Z,99.90
2019-02-04T04:50:40.405Z,99.90
2019-02-04T04:53:11.434Z,99.90
2019-02-04T04:55:42.094Z,99.90
2019-02-04T04:58:12.854Z,99.90
2019-02-04T05:00:43.647Z,99.90
2019-02-04T05:03:14.355Z,99.90
2019-02-04T05:05:45.345Z,99.90
2019-02-04T05:08:16.087Z,99.90
2019-02-04T05:10:47.221Z,99.90
2019-02-04T05:13:18.618Z,99.90
2019-02-04T05:15:56.070Z,99.90
2019-02-04T05:18:37.471Z,99.90
2019-02-04T05:20:59.505Z,99.90
2019-02-04T05:23:30.321Z,99.90
2019-02-04T05:26:00.972Z,99.90
2019-02-04T05:28:32.744Z,99.90
2019-02-04T05:31:04.815Z,99.90
2019-02-04T05:33:36.480Z,99.90
2019-02-04T05:36:07.154Z,99.90
2019-02-04T05:38:37.868Z,99.90
2019-02-04T05:41:08.881Z,99.90
2019-02-04T05:43:39.510Z,99.90
2019-02-04T05:46:27.548Z,99.90
2019-02-04T05:48:58.631Z,99.90
2019-02-04T05:51:29.968Z,99.90
2019-02-04T05:54:06.041Z,99.90
2019-02-04T05:56:37.507Z,99.90
2019-02-04T05:59:08.107Z,99.90
2019-02-04T06:01:39.319Z,99.90
2019-02-04T06:04:25.666Z,99.90
2019-02-04T06:06:57.573Z,99.90
2019-02-04T06:09:28.625Z,99.90
2019-02-04T06:11:59.637Z,99.90
2019-02-04T06:14:30.389Z,99.90
2019-02-04T06:17:39.275Z,99.90
2019-02-04T06:20:13.793Z,99.90
2019-02-04T06:22:45.245Z,99.90
2019-02-04T06:25:16.118Z,99.90
2019-02-04T06:27:46.938Z,99.90
2019-02-04T06:30:17.945Z,99.90
2019-02-04T06:32:49.399Z,99.90
2019-02-04T06:35:21.590Z,99.90
2019-02-04T06:37:52.473Z,99.90
2019-02-04T06:40:23.473Z,99.90
2019-02-04T06:42:55.199Z,99.90
2019-02-04T06:45:25.985Z,99.90
2019-02-04T06:47:57.300Z,99.90
2019-02-04T06:50:28.524Z,99.90
2019-02-04T06:52:59.589Z,99.90
2019-02-04T06:55:33.435Z,99.90
2019-02-04T06:58:05.030Z,99.90
2019-02-04T07:00:35.648Z,99.90
2019-02-04T07:03:06.585Z,99.90
2019-02-04T07:05:43.973Z,99.90
2019-02-04T07:08:10.318Z,99.90
2019-02-04T07:10:45.279Z,99.90
2019-02-04T07:13:15.920Z,99.90
2019-02-04T07:15:46.939Z,99.90
2019-02-04T07:18:18.490Z,99.90
2019-02-04T07:20:49.862Z,99.90
2019-02-04T07:23:20.861Z,99.90
2019-02-04T07:25:51.186Z,99.90
2019-02-04T07:28:22.430Z,99.90
2019-02-04T07:30:52.752Z,99.90
2019-02-04T07:33:24.511Z,99.90
2019-02-04T07:35:55.160Z,99.90
2019-02-04T07:38:26.542Z,99.90
2019-02-04T07:40:57.169Z,99.90
2019-02-04T07:43:28.641Z,99.90
2019-02-04T07:45:59.454Z,99.90
2019-02-04T07:48:29.796Z,99.90
2019-02-04T07:51:01.053Z,99.90
2019-02-04T07:53:31.380Z,99.90
2019-02-04T07:56:04.182Z,99.90
2019-02-04T07:58:35.225Z,99.90
2019-02-04T08:01:06.239Z,99.90
2019-02-04T08:03:36.567Z,99.90
2019-02-04T08:06:07.235Z,99.90
2019-02-04T08:08:38.263Z,99.90
2019-02-04T08:11:08.643Z,99.90
2019-02-04T08:13:40.002Z,99.90
2019-02-04T08:16:13.333Z,99.90
2019-02-04T08:18:46.162Z,99.90
2019-02-04T08:21:17.274Z,99.90
2019-02-04T08:23:48.322Z,99.90
2019-02-04T08:26:20.056Z,99.90
2019-02-04T08:28:51.334Z,99.90
2019-02-04T08:31:23.180Z,99.90
2019-02-04T08:33:54.622Z,99.90
2019-02-04T08:36:27.204Z,99.90
2019-02-04T08:38:58.388Z,99.90
2019-02-04T08:41:29.869Z,99.90
2019-02-04T08:44:00.928Z,99.90
2019-02-04T08:46:31.691Z,99.90
2019-02-04T08:49:02.870Z,99.90
2019-02-04T08:51:34.706Z,99.90
2019-02-04T08:54:05.925Z,99.90
2019-02-04T08:56:37.078Z,99.90
2019-02-04T08:59:08.957Z,99.90
2019-02-04T09:01:39.978Z,99.90
2019-02-04T09:04:10.673Z,99.90
2019-02-04T09:06:41.021Z,99.90
2019-02-04T09:09:13.536Z,99.90
2019-02-04T09:11:44.647Z,99.90
2019-02-04T09:14:16.105Z,99.90
2019-02-04T09:16:47.650Z,99.90
2019-02-04T09:19:18.066Z,99.90
2019-02-04T09:21:49.530Z,99.90
2019-02-04T09:24:20.834Z,99.90
2019-02-04T09:26:51.159Z,99.90
2019-02-04T09:29:22.586Z,99.90
2019-02-04T09:31:53.258Z,99.90
2019-02-04T09:34:23.907Z,99.90
2019-02-04T09:36:54.567Z,99.90
2019-02-04T09:39:26.827Z,99.90
2019-02-04T09:41:57.936Z,99.90
2019-02-04T09:44:28.981Z,99.90
2019-02-04T09:47:01.457Z,99.90
2019-02-04T09:49:32.899Z,99.90
2019-02-04T09:52:03.491Z,99.90
2019-02-04T09:54:34.201Z,99.90
2019-02-04T09:57:05.280Z,99.90
2019-02-04T09:59:35.939Z,99.90
2019-02-04T10:02:07.016Z,99.90
2019-02-04T10:04:39.355Z,99.90
2019-02-04T10:07:10.046Z,99.90
2019-02-04T10:09:40.999Z,99.90
2019-02-04T10:12:11.665Z,99.90
2019-02-04T10:14:42.728Z,99.90
2019-02-04T10:17:14.985Z,99.90
2019-02-04T10:19:48.132Z,99.90
2019-02-04T10:22:19.824Z,99.90
2019-02-04T10:24:51.175Z,99.90
2019-02-04T10:27:22.576Z,99.90
2019-02-04T10:29:56.077Z,99.90
2019-02-04T10:32:26.845Z,99.90
2019-02-04T10:34:58.327Z,99.90
2019-02-04T10:37:29.024Z,99.90
2019-02-04T10:40:00.272Z,99.90
2019-02-04T10:42:31.431Z,99.90
2019-02-04T10:45:02.195Z,99.90
2019-02-04T10:47:32.912Z,99.90
2019-02-04T10:50:03.754Z,99.90
2019-02-04T10:52:34.347Z,99.90
2019-02-04T10:55:06.274Z,99.90
2019-02-04T10:57:40.591Z,99.90
2019-02-04T11:00:14.112Z,99.90
2019-02-04T11:02:44.988Z,99.90
2019-02-04T11:05:20.210Z,99.90
2019-02-04T11:07:50.989Z,99.90
2019-02-04T11:10:25.047Z,99.90
2019-02-04T11:12:56.089Z,99.90
2019-02-04T11:15:27.442Z,99.90
2019-02-04T11:17:58.822Z,99.90
2019-02-04T11:20:31.529Z,99.90
2019-02-04T11:23:03.186Z,99.90
2019-02-04T11:25:33.932Z,99.90
2019-02-04T11:28:06.028Z,99.90
2019-02-04T11:31:11.503Z,99.90
2019-02-04T11:33:42.825Z,99.90
2019-02-04T11:36:14.018Z,99.90
2019-02-04T11:38:45.545Z,99.90
2019-02-04T11:41:16.180Z,99.90
2019-02-04T11:43:47.208Z,99.50
2019-02-04T11:46:18.468Z,99.80
2019-02-04T11:49:05.073Z,99.90
2019-02-04T11:51:36.343Z,99.90
2019-02-04T11:54:07.691Z,99.90
2019-02-04T11:56:38.767Z,99.90
2019-02-04T11:59:09.505Z,99.90
2019-02-04T12:01:40.445Z,99.90
2019-02-04T12:04:11.584Z,99.90
2019-02-04T12:06:42.323Z,99.90
2019-02-04T12:09:13.997Z,99.90
2019-02-04T12:11:44.613Z,98.90
2019-02-04T12:14:14.975Z,95.50
2019-02-04T12:16:45.678Z,94.40
2019-02-04T12:19:15.997Z,91.00
2019-02-04T12:21:47.419Z,91.80
2019-02-04T12:24:18.498Z,91.20
2019-02-04T12:26:49.919Z,87.50
2019-02-04T12:29:20.323Z,87.40
2019-02-04T12:31:51.295Z,90.30
2019-02-04T12:34:22.918Z,87.50
2019-02-04T12:37:01.077Z,88.50
2019-02-04T12:39:31.843Z,89.00
2019-02-04T12:42:02.824Z,86.00
2019-02-04T12:44:33.904Z,87.50
2019-02-04T12:47:43.609Z,83.00
2019-02-04T12:50:14.307Z,87.70
2019-02-04T12:52:44.908Z,86.40
2019-02-04T12:55:19.763Z,89.70
2019-02-04T12:57:51.083Z,89.30
2019-02-04T13:00:25.419Z,91.00
2019-02-04T13:02:56.091Z,91.10
2019-02-04T13:05:36.565Z,90.50
2019-02-04T13:08:09.600Z,86.70
2019-02-04T13:10:41.536Z,87.20
2019-02-04T13:13:15.552Z,89.00
2019-02-04T13:15:46.973Z,86.00
2019-02-04T13:18:18.320Z,87.60
2019-02-04T13:20:52.811Z,86.70
2019-02-04T13:23:24.299Z,83.60
2019-02-04T13:25:56.578Z,82.30
2019-02-04T13:28:28.338Z,79.20
2019-02-04T13:31:06.341Z,76.70
2019-02-04T13:33:37.262Z,74.30
2019-02-04T13:36:07.883Z,76.40
2019-02-04T13:38:38.926Z,73.70
2019-02-04T13:41:11.175Z,75.70
2019-02-04T13:43:42.316Z,72.60
2019-02-04T13:46:13.271Z,75.90
2019-02-04T13:48:44.209Z,72.90
2019-02-04T13:51:15.261Z,70.10
2019-02-04T13:53:46.514Z,73.10
2019-02-04T13:56:17.770Z,69.30
2019-02-04T13:58:48.228Z,69.20
2019-02-04T14:01:21.144Z,68.50
2019-02-04T14:03:52.726Z,69.60
2019-02-04T14:06:23.784Z,67.80
2019-02-04T14:08:55.421Z,67.70
2019-02-04T14:11:26.176Z,67.50
2019-02-04T14:13:56.984Z,68.60
2019-02-04T14:16:27.957Z,66.00
2019-02-04T14:18:58.687Z,62.90
2019-02-04T14:21:29.824Z,63.50
2019-02-04T14:24:00.723Z,60.30
2019-02-04T14:27:08.782Z,61.60
2019-02-04T14:29:39.841Z,62.00
2019-02-04T14:32:11.267Z,58.30
2019-02-04T14:34:42.599Z,60.40
2019-02-04T14:37:13.495Z,60.80
2019-02-04T14:39:44.551Z,67.10
2019-02-04T14:42:18.441Z,69.40
2019-02-04T14:45:34.572Z,67.20
2019-02-04T14:49:05.609Z,69.00
2019-02-04T14:52:30.546Z,73.00
2019-02-04T14:55:59.522Z,71.30
2019-02-04T14:59:24.333Z,75.70
2019-02-04T15:03:00.905Z,75.50
2019-02-04T15:06:28.571Z,75.70
2019-02-04T15:09:40.977Z,78.50
2019-02-04T15:13:08.503Z,80.50
2019-02-04T15:16:40.633Z,82.30
2019-02-04T15:20:25.496Z,84.20
2019-02-04T15:23:32.168Z,85.00
2019-02-04T15:27:09.285Z,85.90
2019-02-04T15:30:47.019Z,87.20
2019-02-04T15:34:32.792Z,90.30
2019-02-04T15:37:31.185Z,90.20
2019-02-04T15:40:26.349Z,90.90
2019-02-04T15:43:39.673Z,91.90
2019-02-04T15:46:58.264Z,91.90
2019-02-04T15:50:19.295Z,91.90
2019-02-04T15:52:50.018Z,92.80
2019-02-04T15:55:23.490Z,93.30
2019-02-04T15:57:55.259Z,93.30
2019-02-04T16:00:31.579Z,93.90
2019-02-04T16:03:03.050Z,93.90
2019-02-04T16:05:35.540Z,94.20
2019-02-04T16:08:06.637Z,94.70
2019-02-04T16:10:39.025Z,94.80
2019-02-04T16:13:09.725Z,95.20
2019-02-04T16:15:50.417Z,95.80
2019-02-04T16:18:21.532Z,96.20
2019-02-04T16:20:52.824Z,96.70
2019-02-04T16:23:32.460Z,97.90
2019-02-04T16:26:03.910Z,98.00
2019-02-04T16:28:34.969Z,98.50
2019-02-04T16:31:06.248Z,99.20
2019-02-04T16:33:36.878Z,99.80
2019-02-04T16:36:08.184Z,99.90
2019-02-04T16:38:39.634Z,99.90
2019-02-04T16:41:10.013Z,99.90
2019-02-04T16:43:41.997Z,99.90
2019-02-04T16:46:12.905Z,99.90
2019-02-04T16:48:43.889Z,99.90
2019-02-04T16:51:14.938Z,99.90
2019-02-04T16:53:46.437Z,99.90
2019-02-04T16:56:18.796Z,99.90
2019-02-04T16:58:49.822Z,99.90
2019-02-04T17:01:32.761Z,99.90
2019-02-04T17:04:03.836Z,99.90
2019-02-04T17:06:34.837Z,99.90
2019-02-04T17:09:08.558Z,99.90
2019-02-04T17:11:39.924Z,99.90
2019-02-04T17:14:11.230Z,99.90
2019-02-04T17:16:42.597Z,99.90
2019-02-04T17:19:12.900Z,99.90
2019-02-04T17:21:43.630Z,99.90
2019-02-04T17:24:14.666Z,99.90
2019-02-04T17:26:45.980Z,99.90
2019-02-04T17:29:17.224Z,99.90
2019-02-04T17:31:48.193Z,99.90
2019-02-04T17:34:19.290Z,99.90
2019-02-04T17:36:50.632Z,99.90
2019-02-04T17:39:21.725Z,99.90
2019-02-04T17:41:53.083Z,99.90
2019-02-04T17:44:24.454Z,99.90
2019-02-04T17:46:55.264Z,99.90
2019-02-04T17:49:25.569Z,99.90
2019-02-04T17:51:56.666Z,99.90
2019-02-04T17:54:27.953Z,99.90
2019-02-04T17:56:58.911Z,99.90
2019-02-04T17:59:30.054Z,99.90
2019-02-04T18:02:00.814Z,99.90
2019-02-04T18:04:32.303Z,99.90
2019-02-04T18:07:03.157Z,99.90
2019-02-04T18:09:33.812Z,99.90
2019-02-04T18:12:04.849Z,99.90
2019-02-04T18:14:36.216Z,99.90
2019-02-04T18:17:07.472Z,99.90
2019-02-04T18:19:38.468Z,99.90
2019-02-04T18:22:10.328Z,99.90
2019-02-04T18:24:41.381Z,99.90
2019-02-04T18:27:13.226Z,99.90
2019-02-04T18:29:44.090Z,99.90
2019-02-04T18:32:15.018Z,99.90
2019-02-04T18:34:47.581Z,99.90
2019-02-04T18:37:19.047Z,99.90
2019-02-04T18:39:50.036Z,99.90
2019-02-04T18:42:22.241Z,99.90
2019-02-04T18:44:53.746Z,99.90
2019-02-04T18:47:24.389Z,99.90
2019-02-04T18:49:55.435Z,99.90
2019-02-04T18:52:26.831Z,99.90
2019-02-04T18:54:58.186Z,99.90
2019-02-04T18:57:28.982Z,99.90
2019-02-04T18:59:59.345Z,99.90
2019-02-04T19:02:29.709Z,99.90
2019-02-04T19:05:00.688Z,99.90
2019-02-04T19:07:30.987Z,99.90
2019-02-04T19:10:02.120Z,99.90
2019-02-04T19:12:33.147Z,99.90
2019-02-04T19:15:04.558Z,99.90
2019-02-04T19:17:36.314Z,99.90
2019-02-04T19:20:10.819Z,99.90
2019-02-04T19:22:42.105Z,99.90
2019-02-04T19:25:13.255Z,99.90
2019-02-04T19:27:44.241Z,99.90
2019-02-04T19:30:46.126Z,99.90
2019-02-04T19:33:17.563Z,99.90
2019-02-04T19:35:49.717Z,99.90
2019-02-04T19:38:20.899Z,99.90
2019-02-04T19:40:51.963Z,99.90
2019-02-04T19:43:23.375Z,99.90
2019-02-04T19:45:54.118Z,99.90
2019-02-04T19:48:26.529Z,99.90
2019-02-04T19:50:58.287Z,99.90
2019-02-04T19:53:54.589Z,99.90
2019-02-04T19:56:25.431Z,99.90
2019-02-04T19:59:00.587Z,99.90
2019-02-04T20:01:50.644Z,99.90
2019-02-04T20:04:21.788Z,99.90
2019-02-04T20:06:57.562Z,99.90
2019-02-04T20:09:30.946Z,99.90
2019-02-04T20:12:02.391Z,99.90
2019-02-04T20:14:37.939Z,99.90
2019-02-04T20:17:08.271Z,99.90
2019-02-04T20:19:40.030Z,99.90
2019-02-04T20:22:16.457Z,99.90
2019-02-04T20:24:48.446Z,99.90
2019-02-04T20:27:21.182Z,99.90
2019-02-04T20:29:52.254Z,99.90
2019-02-04T20:32:32.636Z,99.90
2019-02-04T20:35:12.053Z,99.90
2019-02-04T20:37:45.675Z,99.90
2019-02-04T20:40:21.081Z,99.90
2019-02-04T20:42:55.540Z,99.90
2019-02-04T20:45:35.273Z,99.90
2019-02-04T20:48:17.481Z,99.90
2019-02-04T20:51:00.037Z,99.90
2019-02-04T20:53:37.107Z,99.90
2019-02-04T20:56:13.232Z,99.90
2019-02-04T20:58:50.089Z,99.90
2019-02-04T21:01:27.226Z,99.90
2019-02-04T21:03:59.921Z,99.90
2019-02-04T21:06:36.222Z,99.90
2019-02-04T21:09:11.416Z,99.90
2019-02-04T21:11:43.530Z,99.90
2019-02-04T21:14:14.461Z,99.90
2019-02-04T21:16:55.807Z,99.90
2019-02-04T21:19:44.295Z,99.90
2019-02-04T21:22:15.765Z,99.90
2019-02-04T21:24:56.301Z,99.90
2019-02-04T21:27:24.793Z,99.90
2019-02-04T21:29:57.613Z,99.90
2019-02-04T21:32:40.429Z,99.90
2019-02-04T21:35:15.556Z,99.90
2019-02-04T21:37:52.952Z,99.90
2019-02-04T21:40:27.478Z,99.90
2019-02-04T21:43:08.252Z,99.90
2019-02-04T21:45:44.481Z,99.90
2019-02-04T21:48:29.130Z,99.90
2019-02-04T21:51:04.782Z,99.90
2019-02-04T21:53:37.755Z,99.90
2019-02-04T21:56:09.322Z,99.90
2019-02-04T21:58:45.338Z,99.90
2019-02-04T22:01:24.038Z,99.90
2019-02-04T22:03:58.394Z,99.90
2019-02-04T22:06:36.203Z,99.90
2019-02-04T22:09:13.918Z,99.90
2019-02-04T22:11:45.462Z,99.90
2019-02-04T22:14:28.192Z,99.90
2019-02-04T22:17:06.192Z,99.90
2019-02-04T22:19:51.378Z,99.90
2019-02-04T22:22:31.515Z,99.90
2019-02-04T22:25:19.843Z,99.90
2019-02-04T22:27:53.164Z,99.90
2019-02-04T22:30:28.738Z,99.90
2019-02-04T22:33:10.184Z,99.90
2019-02-04T22:35:47.333Z,99.90
2019-02-04T22:38:21.261Z,99.90
2019-02-04T22:40:52.088Z,99.90
2019-02-04T22:43:24.965Z,99.90
2019-02-04T22:46:02.500Z,99.90
2019-02-04T22:48:36.061Z,99.90
2019-02-04T22:51:09.020Z,99.90
2019-02-04T22:53:40.474Z,99.90
2019-02-04T22:56:12.399Z,99.90
2019-02-04T22:58:43.817Z,99.90
2019-02-04T23:01:47.305Z,99.90
2019-02-04T23:04:18.363Z,99.90
2019-02-04T23:06:49.984Z,99.90
2019-02-04T23:09:21.132Z,99.90
2019-02-04T23:11:52.200Z,99.90
2019-02-04T23:14:24.054Z,99.90
2019-02-04T23:17:12.750Z,99.90
2019-02-04T23:20:00.509Z,99.90
2019-02-04T23:22:32.905Z,99.90
2019-02-04T23:25:04.000Z,99.90
2019-02-04T23:27:35.168Z,99.90
2019-02-04T23:30:11.392Z,99.90
2019-02-04T23:32:44.183Z,99.90
2019-02-04T23:35:16.119Z,99.90
2019-02-04T23:38:04.859Z,99.90
2019-02-04T23:40:35.632Z,99.90
2019-02-04T23:43:06.894Z,99.90
2019-02-04T23:45:37.924Z,99.90
2019-02-04T23:48:10.706Z,99.90
2019-02-04T23:50:41.602Z,99.90
2019-02-04T23:53:12.375Z,99.90
2019-02-04T23:55:54.407Z,99.90
2019-02-04T23:58:16.909Z,99.90
